createdAt,value
2022-08-26T00:04:18.440Z,100145.81
2022-08-26T00:09:22.284Z,100152.69
2022-08-26T00:14:30.831Z,100169.34
2022-08-26T00:19:33.989Z,100166.28
2022-08-26T00:24:36.611Z,100172.47
2022-08-26T00:29:39.314Z,100138.91
2022-08-26T00:34:42.031Z,100179.59
2022-08-26T00:39:44.929Z,100178.13
2022-08-26T00:44:48.445Z,100165.41
2022-08-26T00:49:53.959Z,100182.66
2022-08-26T00:55:20.156Z,100168.31
2022-08-26T01:00:27.800Z,100175.72
2022-08-26T01:05:30.858Z,100169.31
2022-08-26T01:10:33.687Z,100124.19
2022-08-26T01:15:42.902Z,100170.28
2022-08-26T01:20:48.249Z,100172.72
2022-08-26T01:25:59.766Z,100162.59
2022-08-26T01:31:05.285Z,100155.63
2022-08-26T01:36:08.726Z,100170.13
2022-08-26T01:41:16.270Z,100149.72
2022-08-26T01:46:24.415Z,100168.69
2022-08-26T01:51:28.645Z,100169.16
2022-08-26T01:56:33.331Z,100158.22
2022-08-26T02:01:40.239Z,100167.72
2022-08-26T02:06:44.561Z,100166.00
2022-08-26T02:11:47.985Z,100185.06
2022-08-26T02:16:53.256Z,100170.88
2022-08-26T02:22:03.851Z,100171.69
2022-08-26T02:27:06.758Z,100155.44
2022-08-26T02:32:10.732Z,100165.19
2022-08-26T02:37:14.630Z,100177.69
2022-08-26T02:42:20.419Z,100175.47
2022-08-26T02:47:24.875Z,100168.94
2022-08-26T02:52:28.030Z,100175.38
2022-08-26T02:57:31.199Z,100173.53
2022-08-26T03:02:33.992Z,100143.66
2022-08-26T03:07:36.951Z,100169.22
2022-08-26T03:12:41.115Z,100179.28
2022-08-26T03:17:44.902Z,100176.97
2022-08-26T03:22:47.636Z,100173.91
2022-08-26T03:27:52.903Z,100159.38
2022-08-26T03:32:55.564Z,100143.94
2022-08-26T03:37:58.862Z,100168.75
2022-08-26T03:43:03.431Z,100178.47
2022-08-26T03:48:06.349Z,100162.72
2022-08-26T03:53:09.214Z,100157.97
2022-08-26T03:58:16.080Z,100166.38
2022-08-26T04:03:42.141Z,100150.84
2022-08-26T04:08:45.413Z,100162.34
2022-08-26T04:13:49.616Z,100147.00
2022-08-26T04:18:52.700Z,100145.25
2022-08-26T04:23:55.830Z,100153.03
2022-08-26T04:29:01.389Z,100170.69
2022-08-26T04:34:06.054Z,100176.03
2022-08-26T04:39:12.176Z,100177.72
2022-08-26T04:44:15.173Z,100179.31
2022-08-26T04:49:18.249Z,100185.59
2022-08-26T04:54:21.146Z,100168.69
2022-08-26T04:59:24.581Z,100178.63
2022-08-26T05:04:27.566Z,100150.13
2022-08-26T05:09:32.129Z,100174.81
2022-08-26T05:14:35.093Z,100174.75
2022-08-26T05:19:38.589Z,100159.34
2022-08-26T05:24:46.609Z,100180.97
2022-08-26T05:29:54.449Z,100182.44
2022-08-26T05:34:57.555Z,100189.19
2022-08-26T05:40:04.023Z,100187.69
2022-08-26T05:45:07.889Z,100173.31
2022-08-26T05:50:10.635Z,100174.75
2022-08-26T05:55:14.914Z,100184.66
2022-08-26T06:00:19.062Z,100175.88
2022-08-26T06:05:22.348Z,100149.84
2022-08-26T06:10:33.201Z,100174.19
2022-08-26T06:15:42.048Z,100176.47
2022-08-26T06:20:57.396Z,100145.16
2022-08-26T06:26:01.832Z,100169.00
2022-08-26T06:31:06.230Z,100169.44
2022-08-26T06:36:09.509Z,100169.53
2022-08-26T06:41:12.441Z,100156.69
2022-08-26T06:46:21.670Z,100168.13
2022-08-26T06:51:27.488Z,100172.69
2022-08-26T06:56:42.793Z,100169.38
2022-08-26T07:01:45.664Z,100174.50
2022-08-26T07:06:52.254Z,100180.38
2022-08-26T07:11:56.580Z,100163.44
2022-08-26T07:17:02.683Z,100161.34
2022-08-26T07:22:06.656Z,100163.16
2022-08-26T07:27:15.785Z,100168.91
2022-08-26T07:32:22.956Z,100170.94
2022-08-26T07:37:26.048Z,100146.09
2022-08-26T07:42:28.837Z,100158.41
2022-08-26T07:47:31.669Z,100150.09
2022-08-26T07:52:35.439Z,100155.75
2022-08-26T07:57:39.905Z,100160.25
2022-08-26T08:02:45.133Z,100151.06
2022-08-26T08:07:49.833Z,100151.75
2022-08-26T08:12:58.068Z,100145.47
2022-08-26T08:18:04.051Z,100134.47
2022-08-26T08:23:07.024Z,100123.66
2022-08-26T08:28:10.008Z,100146.91
2022-08-26T08:33:13.616Z,100150.00
2022-08-26T08:38:16.630Z,100136.09
2022-08-26T08:43:44.107Z,100133.63
2022-08-26T08:48:52.517Z,100134.50
2022-08-26T08:53:58.932Z,100131.25
2022-08-26T08:59:13.353Z,100133.34
2022-08-26T09:05:00.123Z,100125.16
2022-08-26T09:10:24.877Z,100130.91
2022-08-26T09:15:44.870Z,100126.78
2022-08-26T09:20:59.387Z,100125.44
2022-08-26T09:26:29.357Z,100119.41
2022-08-26T09:31:36.765Z,100112.63
2022-08-26T09:36:46.579Z,100112.00
2022-08-26T09:42:07.340Z,100109.25
2022-08-26T09:47:10.749Z,100106.41
2022-08-26T09:52:21.860Z,100111.91
2022-08-26T09:57:30.411Z,100111.97
2022-08-26T10:02:33.395Z,100103.56
2022-08-26T10:07:49.495Z,100096.94
2022-08-26T10:12:56.603Z,100086.69
2022-08-26T10:18:25.224Z,100102.47
2022-08-26T10:23:32.984Z,100097.25
2022-08-26T10:28:46.262Z,100083.88
2022-08-26T10:33:51.791Z,100071.03
2022-08-26T10:38:55.391Z,100094.38
2022-08-26T10:44:00.594Z,100065.00
2022-08-26T10:49:14.641Z,100069.41
2022-08-26T10:54:39.679Z,100069.84
2022-08-26T11:00:38.484Z,100063.97
2022-08-26T11:05:41.337Z,100066.94
2022-08-26T11:11:00.879Z,100058.34
2022-08-26T11:16:03.691Z,100067.47
2022-08-26T11:22:06.648Z,100061.53
2022-08-26T11:27:12.303Z,100056.06
2022-08-26T11:32:44.189Z,100058.84
2022-08-26T11:37:53.640Z,100033.63
2022-08-26T11:43:05.791Z,100047.38
2022-08-26T11:48:20.975Z,100036.78
2022-08-26T11:53:26.163Z,100040.25
2022-08-26T11:58:29.249Z,100035.72
2022-08-26T12:03:39.922Z,100032.13
2022-08-26T12:08:45.149Z,100025.66
2022-08-26T12:14:00.689Z,100036.41
2022-08-26T12:19:22.090Z,100020.09
2022-08-26T12:24:28.778Z,99993.72
2022-08-26T12:29:31.590Z,99995.38
2022-08-26T12:34:34.644Z,100011.19
2022-08-26T12:39:40.398Z,100009.34
2022-08-26T12:44:53.312Z,100013.53
2022-08-26T12:50:08.550Z,100010.59
2022-08-26T12:55:47.845Z,99986.75
2022-08-26T13:00:51.889Z,100002.28
2022-08-26T13:06:08.357Z,99983.72
2022-08-26T13:11:23.723Z,100006.13
2022-08-26T13:16:27.474Z,99999.13
2022-08-26T13:21:37.288Z,99988.09
2022-08-26T13:26:41.365Z,99985.47
2022-08-26T13:31:45.850Z,99994.66
2022-08-26T13:36:51.173Z,99989.09
2022-08-26T13:41:54.618Z,99962.00
2022-08-26T13:46:57.243Z,99989.31
2022-08-26T13:51:59.967Z,99985.97
2022-08-26T13:57:02.669Z,99973.28
2022-08-26T14:02:05.436Z,99989.16
2022-08-26T14:07:08.503Z,99981.88
2022-08-26T14:12:11.139Z,99970.75
2022-08-26T14:17:19.838Z,99986.81
2022-08-26T14:22:22.999Z,99983.97
2022-08-26T14:27:25.888Z,99975.38
2022-08-26T14:32:29.592Z,99975.09
2022-08-26T14:37:33.265Z,99944.41
2022-08-26T14:42:36.412Z,99979.28
2022-08-26T14:47:39.766Z,99975.66
2022-08-26T14:53:03.709Z,99984.25
2022-08-26T14:58:06.719Z,99985.25
2022-08-26T15:03:09.480Z,99969.59
2022-08-26T15:08:13.005Z,99976.94
2022-08-26T15:13:15.699Z,99953.59
2022-08-26T15:18:18.327Z,99986.34
2022-08-26T15:23:21.317Z,99990.38
2022-08-26T15:28:24.047Z,99995.38
2022-08-26T15:33:26.805Z,99999.91
2022-08-26T15:38:34.147Z,99988.09
2022-08-26T15:43:37.565Z,100001.25
2022-08-26T15:48:40.659Z,100001.09
2022-08-26T15:53:43.348Z,100004.28
2022-08-26T15:58:46.175Z,100012.84
2022-08-26T16:03:49.272Z,100014.00
2022-08-26T16:08:51.920Z,99990.56
2022-08-26T16:13:55.528Z,100021.78
2022-08-26T16:18:58.840Z,100012.22
2022-08-26T16:24:01.742Z,100025.22
2022-08-26T16:29:08.832Z,100032.81
2022-08-26T16:34:11.534Z,100021.00
2022-08-26T16:39:14.320Z,100026.59
2022-08-26T16:44:17.109Z,100017.53
2022-08-26T16:49:19.989Z,100026.22
2022-08-26T16:54:22.670Z,100035.81
2022-08-26T16:59:25.468Z,100039.03
2022-08-26T17:04:29.114Z,100028.41
2022-08-26T17:09:32.036Z,100029.13
2022-08-26T17:14:35.218Z,100050.31
2022-08-26T17:19:41.732Z,100038.19
2022-08-26T17:24:49.849Z,100043.56
2022-08-26T17:29:52.530Z,100045.22
2022-08-26T17:34:55.378Z,100028.84
2022-08-26T17:39:58.590Z,100040.22
2022-08-26T17:45:02.575Z,100047.91
2022-08-26T17:50:10.408Z,100043.00
2022-08-26T17:55:15.641Z,100039.41
2022-08-26T18:00:21.681Z,100046.81
2022-08-26T18:05:24.907Z,100033.28
2022-08-26T18:10:27.929Z,100047.78
2022-08-26T18:15:30.547Z,100029.31
2022-08-26T18:20:33.484Z,100043.97
2022-08-26T18:25:41.251Z,100036.72
2022-08-26T18:30:44.776Z,100043.13
2022-08-26T18:35:47.563Z,100043.09
2022-08-26T18:40:50.335Z,100047.91
2022-08-26T18:46:02.456Z,100024.34
2022-08-26T18:51:06.948Z,100054.41
2022-08-26T18:56:14.313Z,100042.56
2022-08-26T19:01:23.250Z,100064.47
2022-08-26T19:06:32.872Z,100064.34
2022-08-26T19:11:37.290Z,100071.31
2022-08-26T19:16:43.150Z,100080.28
2022-08-26T19:21:47.054Z,100079.78
2022-08-26T19:26:57.788Z,100079.91
2022-08-26T19:32:02.017Z,100087.66
2022-08-26T19:37:05.140Z,100087.22
2022-08-26T19:42:07.783Z,100082.41
2022-08-26T19:47:12.101Z,100088.63
2022-08-26T19:52:15.205Z,100102.06
2022-08-26T19:57:18.727Z,100103.97
2022-08-26T20:02:21.571Z,100103.16
2022-08-26T20:07:24.268Z,100104.72
2022-08-26T20:12:27.609Z,100094.72
2022-08-26T20:17:30.863Z,100114.56
2022-08-26T20:22:33.853Z,100112.88
2022-08-26T20:27:38.445Z,100119.94
2022-08-26T20:32:42.260Z,100112.03
2022-08-26T20:37:44.952Z,100113.25
2022-08-26T20:42:48.036Z,100103.16
2022-08-26T20:47:51.828Z,100100.22
2022-08-26T20:52:55.250Z,100102.66
2022-08-26T20:58:17.257Z,100113.31
2022-08-26T21:03:20.230Z,100105.53
2022-08-26T21:08:23.543Z,100070.81
2022-08-26T21:13:27.309Z,100107.72
2022-08-26T21:18:31.527Z,100118.69
2022-08-26T21:23:36.297Z,100041.94
2022-08-26T21:28:41.239Z,100043.63
2022-08-26T21:33:43.969Z,100118.53
2022-08-26T21:38:47.337Z,100105.94
2022-08-26T21:43:53.829Z,100120.53
2022-08-26T21:49:00.280Z,100103.94
2022-08-26T21:54:10.505Z,100123.78
2022-08-26T21:59:17.423Z,100073.56
2022-08-26T22:04:20.621Z,100133.63
2022-08-26T22:09:26.069Z,100129.59
2022-08-26T22:14:30.879Z,100118.97
2022-08-26T22:19:45.750Z,100127.09
2022-08-26T22:24:49.321Z,100138.47
2022-08-26T22:29:52.257Z,100129.13
2022-08-26T22:34:54.941Z,100143.22
2022-08-26T22:39:57.685Z,100125.28
2022-08-26T22:45:02.270Z,100131.59
2022-08-26T22:50:07.326Z,100129.81
2022-08-26T22:55:11.170Z,100110.19
2022-08-26T23:00:14.569Z,100117.78
2022-08-26T23:05:17.867Z,100117.50
2022-08-26T23:10:20.767Z,100120.94
2022-08-26T23:15:23.599Z,100122.84
2022-08-26T23:20:28.084Z,100120.66
2022-08-26T23:25:32.569Z,100111.88
2022-08-26T23:30:35.319Z,100124.19
2022-08-26T23:35:38.800Z,100125.50
2022-08-26T23:40:44.157Z,100124.53
2022-08-26T23:45:47.032Z,100131.09
2022-08-26T23:51:08.574Z,100124.44
2022-08-26T23:56:16.104Z,100102.59
